Time;durP1;ratioP1;P1;durP2;ratioP2;P2;SDS_P1;SDS_P2;PMS_P1;PMS_P2;Temp;Humidity;BMP_temperature;BMP_pressure;BME280_temperature;BME280_humidity;BME280_pressure;Samples;Min_cycle;Max_cycle;Signal;HPM_P1;HPM_P2
2022/06/07 00:00:45;;;;;;;31.25;9.88;;;;;;;;;;4919572;29;20051;-64
2022/06/07 00:03:12;;;;;;;57.00;11.88;;;;;;;;;;4921925;29;20123;-64
2022/06/07 00:05:41;;;;;;;16.23;9.65;;;;;;;;;;4918110;29;20544;-64
2022/06/07 00:08:08;;;;;;;20.65;9.48;;;;;;;;;;4919079;29;20048;-64
2022/06/07 00:10:34;;;;;;;16.17;9.10;;;;;;;;;;4918056;29;20067;-64
2022/06/07 00:13:01;;;;;;;38.08;11.20;;;;;;;;;;4925829;29;20134;-64
2022/06/07 00:15:27;;;;;;;18.58;9.40;;;;;;;;;;4920985;29;20040;-65
2022/06/07 00:17:54;;;;;;;29.35;9.68;;;;;;;;;;4918923;29;20040;-64
2022/06/07 00:20:21;;;;;;;22.27;9.55;;;;;;;;;;4918924;29;20516;-64
2022/06/07 00:22:47;;;;;;;19.10;9.02;;;;;;;;;;4919374;29;20040;-65
2022/06/07 00:25:15;;;;;;;24.92;10.30;;;;;;;;;;4915497;29;20127;-64
2022/06/07 00:27:42;;;;;;;18.27;9.60;;;;;;;;;;4919638;29;20052;-64
2022/06/07 00:30:11;;;;;;;23.83;10.25;;;;;;;;;;4927844;29;20127;-65
2022/06/07 00:32:39;;;;;;;16.65;9.15;;;;;;;;;;4925024;29;20125;-64
2022/06/07 00:35:06;;;;;;;40.38;11.00;;;;;;;;;;4918101;29;20560;-64
2022/06/07 00:37:32;;;;;;;71.75;13.05;;;;;;;;;;4915378;29;20051;-64
2022/06/07 00:39:59;;;;;;;25.98;10.02;;;;;;;;;;4915928;29;20074;-64
2022/06/07 00:42:25;;;;;;;14.93;9.30;;;;;;;;;;4927115;29;20051;-64
2022/06/07 00:44:52;;;;;;;51.08;11.90;;;;;;;;;;4925100;29;20115;-64
2022/06/07 00:47:20;;;;;;;21.38;10.32;;;;;;;;;;4919070;29;20123;-64
2022/06/07 00:49:49;;;;;;;31.27;10.60;;;;;;;;;;4917387;29;20071;-64
2022/06/07 00:52:20;;;;;;;23.88;10.38;;;;;;;;;;4896770;29;20083;-64
2022/06/07 00:54:47;;;;;;;26.60;10.57;;;;;;;;;;4914857;29;20055;-64
2022/06/07 00:57:24;;;;;;;22.60;11.05;;;;;;;;;;4904467;29;20044;-64
2022/06/07 00:59:51;;;;;;;27.88;10.48;;;;;;;;;;4912941;29;20055;-64
2022/06/07 01:02:18;;;;;;;16.58;10.25;;;;;;;;;;4894114;29;20055;-65
2022/06/07 01:04:45;;;;;;;23.70;9.60;;;;;;;;;;4914745;29;20039;-64
2022/06/07 01:12:48;;;;;;;29.38;10.63;;;;;;;;;;4908785;29;20044;-64
2022/06/07 01:15:19;;;;;;;17.20;10.38;;;;;;;;;;4912895;29;20067;-64
2022/06/07 01:17:46;;;;;;;30.95;11.45;;;;;;;;;;4894323;29;20052;-64
2022/06/07 01:20:13;;;;;;;21.17;10.50;;;;;;;;;;4916050;29;20032;-64
2022/06/07 01:22:39;;;;;;;20.80;10.57;;;;;;;;;;4899565;29;20127;-65
2022/06/07 01:25:07;;;;;;;21.05;10.18;;;;;;;;;;4903601;29;20105;-65
2022/06/07 01:27:33;;;;;;;23.70;10.70;;;;;;;;;;4912008;29;20060;-64
2022/06/07 01:30:03;;;;;;;19.17;10.40;;;;;;;;;;4915588;29;20457;-64
2022/06/07 01:32:29;;;;;;;30.77;10.60;;;;;;;;;;4904598;29;20068;-65
2022/06/07 01:34:56;;;;;;;32.17;10.13;;;;;;;;;;4898973;29;20041;-65
2022/06/07 01:37:23;;;;;;;23.58;10.15;;;;;;;;;;4916841;29;20055;-64
2022/06/07 01:42:35;;;;;;;19.98;9.98;;;;;;;;;;4909096;29;20052;-65
2022/06/07 01:45:01;;;;;;;22.35;10.90;;;;;;;;;;4907989;29;20123;-64
2022/06/07 01:47:30;;;;;;;17.60;10.60;;;;;;;;;;4901575;29;20756;-65
2022/06/07 01:49:59;;;;;;;56.85;13.05;;;;;;;;;;4900813;29;20053;-64
2022/06/07 01:52:27;;;;;;;28.17;10.30;;;;;;;;;;4911159;29;20053;-65
2022/06/07 01:54:59;;;;;;;31.08;11.57;;;;;;;;;;4902638;29;20060;-64
2022/06/07 01:57:29;;;;;;;15.68;10.32;;;;;;;;;;4910765;29;20059;-64
2022/06/07 02:00:00;;;;;;;32.10;11.15;;;;;;;;;;4906259;29;20053;-65
2022/06/07 02:02:28;;;;;;;24.98;10.40;;;;;;;;;;4902583;29;20394;-65
2022/06/07 02:04:56;;;;;;;22.77;10.85;;;;;;;;;;4902599;29;20044;-65
2022/06/07 02:07:23;;;;;;;31.60;11.45;;;;;;;;;;4898572;29;20087;-65
2022/06/07 02:09:56;;;;;;;42.78;12.90;;;;;;;;;;4900041;29;20061;-64
2022/06/07 02:12:23;;;;;;;24.60;11.93;;;;;;;;;;4902350;29;20048;-64
2022/06/07 02:14:50;;;;;;;20.23;12.07;;;;;;;;;;4902437;29;20099;-64
2022/06/07 02:17:16;;;;;;;23.63;11.25;;;;;;;;;;4902385;29;20072;-64
2022/06/07 02:19:59;;;;;;;17.88;12.50;;;;;;;;;;4900623;29;20103;-64
2022/06/07 02:22:26;;;;;;;31.60;14.05;;;;;;;;;;4899660;29;20056;-64
2022/06/07 02:24:53;;;;;;;26.45;13.27;;;;;;;;;;4900514;29;20059;-64
2022/06/07 02:27:19;;;;;;;42.30;14.30;;;;;;;;;;4902134;29;20501;-64
2022/06/07 02:29:47;;;;;;;38.17;14.38;;;;;;;;;;4903867;29;20536;-63
2022/06/07 02:32:18;;;;;;;18.98;13.38;;;;;;;;;;4913533;29;20099;-65
2022/06/07 02:34:47;;;;;;;35.50;14.63;;;;;;;;;;4896032;29;20055;-64
2022/06/07 02:37:14;;;;;;;24.48;13.48;;;;;;;;;;4893654;29;20102;-64
2022/06/07 02:39:41;;;;;;;26.77;13.57;;;;;;;;;;4911085;29;20583;-64
2022/06/07 02:42:09;;;;;;;19.65;13.73;;;;;;;;;;4906566;29;20127;-64
2022/06/07 02:44:35;;;;;;;30.35;13.60;;;;;;;;;;4902081;29;20520;-64
2022/06/07 02:47:02;;;;;;;28.60;14.60;;;;;;;;;;4901992;29;20497;-64
2022/06/07 02:49:29;;;;;;;40.45;14.88;;;;;;;;;;4895838;29;20112;-64
2022/06/07 02:51:55;;;;;;;29.35;13.85;;;;;;;;;;4914348;29;20529;-64
2022/06/07 02:54:37;;;;;;;19.92;13.63;;;;;;;;;;4916438;29;20052;-64
2022/06/07 02:57:06;;;;;;;605.45;57.58;;;;;;;;;;4910487;29;20048;-64
2022/06/07 02:59:33;;;;;;;189.73;24.25;;;;;;;;;;4927236;29;20064;-64
2022/06/07 03:02:00;;;;;;;67.82;17.50;;;;;;;;;;4924699;29;20462;-64
2022/06/07 03:04:27;;;;;;;62.35;15.18;;;;;;;;;;4914984;29;20115;-64
2022/06/07 03:06:54;;;;;;;43.35;14.70;;;;;;;;;;4915902;29;20123;-64
2022/06/07 03:09:21;;;;;;;32.58;13.63;;;;;;;;;;4913734;29;20056;-64
2022/06/07 03:11:48;;;;;;;41.67;16.45;;;;;;;;;;4907870;29;20104;-64
2022/06/07 03:14:15;;;;;;;34.80;15.25;;;;;;;;;;4927031;29;20044;-65
2022/06/07 03:16:42;;;;;;;31.33;15.68;;;;;;;;;;4914597;29;20130;-64
2022/06/07 03:19:09;;;;;;;48.00;15.93;;;;;;;;;;4915057;29;20056;-64
2022/06/07 03:21:39;;;;;;;40.35;15.88;;;;;;;;;;4916552;29;20044;-64
2022/06/07 03:24:07;;;;;;;30.02;15.38;;;;;;;;;;4915949;29;20139;-65
2022/06/07 03:26:34;;;;;;;45.10;17.40;;;;;;;;;;4901668;29;20060;-64
2022/06/07 03:29:07;;;;;;;49.58;16.60;;;;;;;;;;4927938;29;20052;-64
2022/06/07 03:31:34;;;;;;;61.50;17.38;;;;;;;;;;4913583;29;20446;-64
2022/06/07 03:34:04;;;;;;;60.47;16.30;;;;;;;;;;4913393;29;20044;-64
2022/06/07 03:36:36;;;;;;;43.80;15.43;;;;;;;;;;4915518;29;20091;-64
2022/06/07 03:39:07;;;;;;;37.10;14.52;;;;;;;;;;4915179;29;20071;-64
2022/06/07 03:41:37;;;;;;;40.30;15.45;;;;;;;;;;4914316;29;20431;-64
2022/06/07 03:44:10;;;;;;;27.58;15.35;;;;;;;;;;4913807;29;20052;-64
2022/06/07 03:46:41;;;;;;;51.58;23.90;;;;;;;;;;4924357;29;20043;-64
2022/06/07 03:49:08;;;;;;;62.65;23.88;;;;;;;;;;4914677;29;20048;-64
2022/06/07 03:51:35;;;;;;;40.45;19.80;;;;;;;;;;4901752;29;20076;-64
2022/06/07 03:54:02;;;;;;;36.38;17.20;;;;;;;;;;4883483;29;20073;-64
2022/06/07 03:56:31;;;;;;;41.85;16.80;;;;;;;;;;4899113;29;20408;-65
2022/06/07 03:59:00;;;;;;;50.05;16.88;;;;;;;;;;4881093;29;20044;-64
2022/06/07 04:01:27;;;;;;;39.00;16.35;;;;;;;;;;4898486;29;20151;-64
2022/06/07 04:03:56;;;;;;;40.50;16.42;;;;;;;;;;4914392;29;20556;-64
2022/06/07 04:06:23;;;;;;;34.30;13.82;;;;;;;;;;4901521;29;20081;-65
2022/06/07 04:08:52;;;;;;;45.55;15.15;;;;;;;;;;4899090;29;20040;-63
2022/06/07 04:11:20;;;;;;;29.23;14.15;;;;;;;;;;4898885;29;20076;-64
2022/06/07 04:13:55;;;;;;;55.55;15.18;;;;;;;;;;4909716;29;20664;-64
2022/06/07 04:16:23;;;;;;;35.47;14.10;;;;;;;;;;4896460;29;20123;-64
2022/06/07 04:18:54;;;;;;;33.67;15.93;;;;;;;;;;4898397;29;20052;-64
2022/06/07 04:21:22;;;;;;;25.15;14.40;;;;;;;;;;4883389;29;20056;-65
2022/06/07 04:23:51;;;;;;;167.50;20.13;;;;;;;;;;4907171;29;20104;-65
2022/06/07 04:26:22;;;;;;;38.67;15.10;;;;;;;;;;4910574;29;20049;-65
2022/06/07 04:28:50;;;;;;;29.60;12.57;;;;;;;;;;4907689;29;20044;-65
2022/06/07 04:31:18;;;;;;;28.73;12.88;;;;;;;;;;4907840;29;20044;-65
2022/06/07 04:33:46;;;;;;;46.83;13.73;;;;;;;;;;4906897;29;20041;-65
2022/06/07 04:36:18;;;;;;;22.83;12.18;;;;;;;;;;4899571;29;20045;-64
2022/06/07 04:38:46;;;;;;;95.90;18.63;;;;;;;;;;4909723;29;20052;-64
2022/06/07 04:41:17;;;;;;;56.38;14.15;;;;;;;;;;4910945;29;20041;-64
2022/06/07 04:43:52;;;;;;;40.45;14.20;;;;;;;;;;4906399;29;20052;-65
2022/06/07 04:46:20;;;;;;;26.85;14.48;;;;;;;;;;4898605;29;20144;-65
2022/06/07 04:48:50;;;;;;;25.20;13.27;;;;;;;;;;4911274;29;20060;-65
2022/06/07 04:51:21;;;;;;;105.80;19.25;;;;;;;;;;4914161;29;20052;-65
2022/06/07 04:53:58;;;;;;;94.30;16.50;;;;;;;;;;4919864;29;20056;-65
2022/06/07 04:56:29;;;;;;;33.63;14.55;;;;;;;;;;4921464;29;20043;-65
2022/06/07 04:58:56;;;;;;;31.15;14.38;;;;;;;;;;4921992;29;20067;-65
2022/06/07 05:01:29;;;;;;;36.95;14.07;;;;;;;;;;4918315;29;20048;-65
2022/06/07 05:03:59;;;;;;;66.28;16.45;;;;;;;;;;4918364;29;20052;-65
2022/06/07 05:06:27;;;;;;;24.02;13.98;;;;;;;;;;4925354;29;20044;-65
2022/06/07 05:09:05;;;;;;;31.25;14.07;;;;;;;;;;4905249;29;20044;-65
2022/06/07 05:11:32;;;;;;;38.35;14.90;;;;;;;;;;4919147;29;20040;-65
2022/06/07 05:14:02;;;;;;;34.05;13.95;;;;;;;;;;4920770;29;20547;-64
2022/06/07 05:16:31;;;;;;;43.65;14.60;;;;;;;;;;4923801;29;20471;-65
2022/06/07 05:19:05;;;;;;;70.70;16.48;;;;;;;;;;4915563;29;20143;-65
2022/06/07 05:21:32;;;;;;;49.80;15.23;;;;;;;;;;4920430;29;20040;-65
2022/06/07 05:23:59;;;;;;;32.50;13.18;;;;;;;;;;4919334;29;20062;-64
2022/06/07 05:26:31;;;;;;;40.17;13.73;;;;;;;;;;4921479;29;20048;-64
2022/06/07 05:29:01;;;;;;;37.65;13.25;;;;;;;;;;4920360;29;20500;-64
2022/06/07 05:31:28;;;;;;;47.60;14.00;;;;;;;;;;4902086;29;20040;-65
2022/06/07 05:33:55;;;;;;;35.38;13.90;;;;;;;;;;4919521;29;20103;-64
2022/06/07 05:36:23;;;;;;;37.47;13.13;;;;;;;;;;4919800;29;20036;-64
2022/06/07 05:38:56;;;;;;;;;;;;;;;;;;4920758;29;20044;-65
2022/06/07 05:41:25;;;;;;;22.58;11.65;;;;;;;;;;4920673;29;19970;-64
2022/06/07 05:43:59;;;;;;;31.83;12.05;;;;;;;;;;4920514;29;20040;-64
2022/06/07 05:46:32;;;;;;;52.97;14.13;;;;;;;;;;4917871;29;20103;-65
2022/06/07 05:49:10;;;;;;;60.13;14.68;;;;;;;;;;4915662;29;20135;-65
2022/06/07 05:51:49;;;;;;;57.97;14.50;;;;;;;;;;4917436;29;20052;-64
2022/06/07 05:54:16;;;;;;;47.92;13.15;;;;;;;;;;4888665;29;20494;-63
2022/06/07 05:56:43;;;;;;;57.47;29.52;;;;;;;;;;4901537;29;20044;-64
2022/06/07 05:59:10;;;;;;;48.75;14.23;;;;;;;;;;4919339;29;20115;-64
2022/06/07 06:01:37;;;;;;;60.38;14.68;;;;;;;;;;4913930;29;20051;-64
2022/06/07 06:04:07;;;;;;;37.78;14.20;;;;;;;;;;4900651;29;20048;-64
2022/06/07 06:06:39;;;;;;;144.02;20.10;;;;;;;;;;4901549;29;20517;-63
2022/06/07 06:11:55;;;;;;;51.40;14.52;;;;;;;;;;4900009;29;20135;-62
2022/06/07 06:14:29;;;;;;;54.35;14.60;;;;;;;;;;4920032;29;20044;-63
2022/06/07 06:17:03;;;;;;;78.68;16.00;;;;;;;;;;4899263;29;20501;-63
2022/06/07 06:19:36;;;;;;;48.38;14.50;;;;;;;;;;4915248;29;20051;-63
2022/06/07 06:22:03;;;;;;;37.83;14.43;;;;;;;;;;4899868;29;20044;-64
2022/06/07 06:24:32;;;;;;;32.22;13.43;;;;;;;;;;4900846;29;20048;-64
2022/06/07 06:26:59;;;;;;;23.50;12.90;;;;;;;;;;4907167;29;20056;-64
2022/06/07 06:29:32;;;;;;;;;;;;;;;;;;4901481;29;20056;-64
2022/06/07 06:31:59;;;;;;;40.45;13.57;;;;;;;;;;4885106;29;19927;-64
2022/06/07 06:34:29;;;;;;;29.33;12.15;;;;;;;;;;4898163;29;20056;-64
2022/06/07 06:36:59;;;;;;;39.95;12.80;;;;;;;;;;4913878;29;20060;-64
2022/06/07 06:39:28;;;;;;;19.42;11.70;;;;;;;;;;4896366;29;20071;-64
2022/06/07 06:41:55;;;;;;;38.33;11.70;;;;;;;;;;4907890;29;20044;-64
2022/06/07 06:44:32;;;;;;;760.50;76.60;;;;;;;;;;4910661;29;20044;-64
2022/06/07 06:47:01;;;;;;;73.38;15.90;;;;;;;;;;4884082;29;20096;-64
2022/06/07 06:49:28;;;;;;;42.33;13.15;;;;;;;;;;4897034;29;20048;-64
2022/06/07 06:52:00;;;;;;;625.72;52.15;;;;;;;;;;4900564;29;20497;-65
2022/06/07 06:54:33;;;;;;;240.38;22.83;;;;;;;;;;4906030;29;20059;-64
2022/06/07 06:57:14;;;;;;;65.80;12.27;;;;;;;;;;4911235;29;20084;-64
2022/06/07 06:59:40;;;;;;;59.28;12.93;;;;;;;;;;4909194;29;20048;-64
2022/06/07 07:02:14;;;;;;;31.92;12.77;;;;;;;;;;4884731;29;20469;-64
2022/06/07 07:04:51;;;;;;;22.35;11.77;;;;;;;;;;4899839;29;20405;-64
2022/06/07 07:07:18;;;;;;;1511.38;147.25;;;;;;;;;;4917104;29;20050;-65
2022/06/07 07:09:44;;;;;;;58.67;13.75;;;;;;;;;;4901151;29;20048;-64
2022/06/07 07:12:11;;;;;;;52.75;11.88;;;;;;;;;;4905881;29;20497;-67
2022/06/07 07:14:48;;;;;;;14.95;9.93;;;;;;;;;;4908111;29;20045;-68
2022/06/07 07:17:28;;;;;;;18.55;10.07;;;;;;;;;;4899988;29;20379;-65
2022/06/07 07:19:55;;;;;;;38.13;11.05;;;;;;;;;;4898673;29;20159;-65
2022/06/07 07:22:22;;;;;;;26.40;9.75;;;;;;;;;;4908634;29;20401;-65
2022/06/07 07:24:50;;;;;;;32.08;9.45;;;;;;;;;;4897288;29;20063;-66
2022/06/07 07:27:19;;;;;;;20.98;8.82;;;;;;;;;;4903791;29;20044;-66
2022/06/07 07:29:46;;;;;;;21.70;9.15;;;;;;;;;;4899280;29;20055;-65
2022/06/07 07:32:17;;;;;;;19.52;8.52;;;;;;;;;;4906829;29;20056;-64
2022/06/07 07:34:49;;;;;;;15.40;8.35;;;;;;;;;;4910645;29;20135;-66
2022/06/07 07:37:17;;;;;;;23.45;8.77;;;;;;;;;;4914471;29;20147;-66
2022/06/07 07:39:45;;;;;;;14.80;8.05;;;;;;;;;;4913456;29;20040;-66
2022/06/07 07:42:17;;;;;;;30.57;8.97;;;;;;;;;;4904289;29;20505;-66
2022/06/07 07:44:53;;;;;;;19.38;9.48;;;;;;;;;;4899728;29;20852;-66
2022/06/07 07:47:20;;;;;;;13.05;7.85;;;;;;;;;;4899064;29;20127;-66
2022/06/07 07:49:46;;;;;;;772.20;70.35;;;;;;;;;;4915353;29;20121;-65
2022/06/07 07:52:18;;;;;;;17.52;8.13;;;;;;;;;;4897104;29;20071;-67
2022/06/07 07:54:53;;;;;;;19.35;7.78;;;;;;;;;;4911923;29;20138;-66
2022/06/07 07:57:20;;;;;;;68.47;10.45;;;;;;;;;;4906028;29;20040;-66
2022/06/07 07:59:48;;;;;;;18.15;7.60;;;;;;;;;;4905805;29;20131;-66
2022/06/07 08:02:17;;;;;;;33.35;9.00;;;;;;;;;;4895484;29;20044;-66
2022/06/07 08:04:44;;;;;;;868.63;79.18;;;;;;;;;;4897643;29;20055;-67
2022/06/07 08:07:12;;;;;;;40.72;9.40;;;;;;;;;;4914416;29;20052;-66
2022/06/07 08:09:38;;;;;;;122.95;16.63;;;;;;;;;;4911422;29;20132;-67
2022/06/07 08:12:08;;;;;;;27.88;8.93;;;;;;;;;;4907633;29;20048;-67
2022/06/07 08:14:36;;;;;;;24.30;7.55;;;;;;;;;;4909868;29;20465;-67
2022/06/07 08:17:03;;;;;;;109.55;14.43;;;;;;;;;;4900152;29;20063;-67
2022/06/07 08:19:30;;;;;;;30.88;8.82;;;;;;;;;;4897337;29;20045;-67
2022/06/07 08:21:57;;;;;;;26.20;7.53;;;;;;;;;;4907350;29;20123;-67
2022/06/07 08:24:25;;;;;;;17.60;7.10;;;;;;;;;;4903252;29;20488;-67
2022/06/07 08:26:52;;;;;;;15.68;7.32;;;;;;;;;;4903538;29;20143;-67
2022/06/07 08:29:22;;;;;;;26.70;7.75;;;;;;;;;;4899377;29;20053;-66
2022/06/07 08:31:48;;;;;;;21.80;7.85;;;;;;;;;;4899660;29;20139;-67
2022/06/07 08:39:45;;;;;;;16.00;7.03;;;;;;;;;;4909237;29;20040;-68
2022/06/07 08:42:14;;;;;;;55.58;8.40;;;;;;;;;;4904863;29;20041;-68
2022/06/07 08:44:41;;;;;;;18.52;7.35;;;;;;;;;;4902089;29;20059;-68
2022/06/07 08:47:30;;;;;;;276.88;24.45;;;;;;;;;;4912376;29;20043;-67
2022/06/07 08:49:58;;;;;;;18.30;5.90;;;;;;;;;;4899384;29;20048;-67
2022/06/07 08:52:29;;;;;;;14.73;5.28;;;;;;;;;;4896461;29;20136;-65
2022/06/07 08:54:58;;;;;;;19.55;5.75;;;;;;;;;;4899946;29;20055;-66
2022/06/07 08:57:30;;;;;;;48.78;7.82;;;;;;;;;;4899101;29;20557;-66
2022/06/07 09:00:05;;;;;;;20.83;5.93;;;;;;;;;;4899343;29;20048;-67
2022/06/07 09:02:52;;;;;;;22.52;5.18;;;;;;;;;;4899869;29;20083;-65
2022/06/07 09:05:19;;;;;;;16.58;5.43;;;;;;;;;;4899008;29;20127;-65
2022/06/07 09:07:46;;;;;;;36.80;6.60;;;;;;;;;;4895769;29;20052;-66
2022/06/07 09:13:25;;;;;;;40.58;6.35;;;;;;;;;;4906607;29;20048;-66
2022/06/07 09:15:53;;;;;;;36.90;6.68;;;;;;;;;;4907560;29;20052;-66
2022/06/07 09:18:23;;;;;;;23.98;5.25;;;;;;;;;;4903386;29;20136;-66
2022/06/07 09:20:53;;;;;;;14.50;5.18;;;;;;;;;;4904958;29;20080;-65
2022/06/07 09:23:28;;;;;;;31.60;5.78;;;;;;;;;;4900148;29;20150;-66
2022/06/07 09:25:57;;;;;;;27.10;5.85;;;;;;;;;;4913633;29;20082;-66
2022/06/07 09:28:28;;;;;;;42.00;7.55;;;;;;;;;;4898275;29;20112;-66
2022/06/07 09:30:57;;;;;;;215.90;16.67;;;;;;;;;;4897645;29;20128;-67
2022/06/07 09:33:25;;;;;;;34.88;6.60;;;;;;;;;;4897862;29;20037;-66
2022/06/07 09:35:54;;;;;;;72.63;8.75;;;;;;;;;;4898587;29;20131;-66
2022/06/07 09:38:32;;;;;;;17.63;5.65;;;;;;;;;;4900290;29;20045;-66
2022/06/07 09:41:36;;;;;;;53.42;8.48;;;;;;;;;;4898501;29;20049;-67
2022/06/07 09:44:03;;;;;;;29.70;6.47;;;;;;;;;;4916988;29;20034;-66
2022/06/07 09:46:30;;;;;;;64.90;8.80;;;;;;;;;;4899466;29;20048;-66
2022/06/07 09:48:57;;;;;;;78.43;8.80;;;;;;;;;;4903385;29;20049;-66
2022/06/07 09:51:34;;;;;;;22.30;6.38;;;;;;;;;;4911703;29;20057;-66
2022/06/07 09:54:03;;;;;;;69.43;9.63;;;;;;;;;;4908992;29;20051;-66
2022/06/07 09:56:39;;;;;;;39.45;7.43;;;;;;;;;;4901942;29;20047;-66
2022/06/07 09:59:18;;;;;;;72.72;9.05;;;;;;;;;;4902180;29;20050;-67
2022/06/07 10:01:51;;;;;;;121.28;14.02;;;;;;;;;;4897551;29;20040;-67
2022/06/07 10:04:17;;;;;;;;;;;;;;;;;;4917535;29;20126;-66
2022/06/07 10:06:46;;;;;;;57.17;7.68;;;;;;;;;;4912645;29;19954;-66
2022/06/07 10:09:22;;;;;;;33.60;6.03;;;;;;;;;;4913277;29;20162;-65
2022/06/07 10:12:09;;;;;;;48.08;7.70;;;;;;;;;;4911855;29;20056;-66
2022/06/07 10:14:38;;;;;;;24.60;6.15;;;;;;;;;;4828791;29;20613;-64
2022/06/07 10:17:25;;;;;;;79.35;9.23;;;;;;;;;;4827619;29;20054;-65
2022/06/07 10:19:52;;;;;;;74.80;9.13;;;;;;;;;;4825947;29;20083;-64
2022/06/07 10:22:31;;;;;;;61.60;8.13;;;;;;;;;;4830176;29;20126;-64
2022/06/07 10:25:09;;;;;;;45.10;19.35;;;;;;;;;;4827983;29;20060;-66
2022/06/07 10:27:54;;;;;;;52.55;7.60;;;;;;;;;;4824097;29;20053;-66
2022/06/07 10:30:39;;;;;;;40.80;7.10;;;;;;;;;;4825557;29;20047;-64
2022/06/07 10:33:08;;;;;;;356.27;32.50;;;;;;;;;;4828169;29;20582;-64
2022/06/07 10:35:41;;;;;;;53.05;7.45;;;;;;;;;;4828902;29;20049;-65
2022/06/07 10:38:08;;;;;;;101.55;34.60;;;;;;;;;;4827936;29;20062;-65
2022/06/07 10:40:41;;;;;;;788.75;62.25;;;;;;;;;;4828891;29;20121;-65
2022/06/07 10:43:17;;;;;;;35.13;6.90;;;;;;;;;;4831281;29;20046;-62
2022/06/07 10:45:44;;;;;;;71.05;8.23;;;;;;;;;;4828257;29;20061;-63
2022/06/07 10:48:16;;;;;;;34.92;10.52;;;;;;;;;;4825731;29;20065;-63
2022/06/07 10:50:43;;;;;;;45.00;19.77;;;;;;;;;;4840361;29;20053;-63
2022/06/07 10:53:15;;;;;;;44.13;9.27;;;;;;;;;;4912843;29;20142;-63
2022/06/07 10:55:46;;;;;;;56.10;8.93;;;;;;;;;;4926932;29;20056;-63
2022/06/07 10:58:28;;;;;;;72.00;8.68;;;;;;;;;;4927789;29;20063;-63
2022/06/07 11:00:55;;;;;;;124.00;11.98;;;;;;;;;;4929674;29;20099;-63
2022/06/07 11:03:26;;;;;;;65.80;18.33;;;;;;;;;;4929223;29;20103;-62
2022/06/07 11:11:39;;;;;;;44.80;9.57;;;;;;;;;;4929104;29;20240;-63
2022/06/07 11:14:24;;;;;;;32.42;6.30;;;;;;;;;;4925666;29;20114;-63
2022/06/07 11:16:53;;;;;;;50.60;7.60;;;;;;;;;;4925256;29;20412;-63
2022/06/07 11:19:20;;;;;;;31.98;10.13;;;;;;;;;;4927093;29;20150;-62
2022/06/07 11:21:49;;;;;;;37.08;9.65;;;;;;;;;;4928174;29;20054;-63
2022/06/07 11:24:19;;;;;;;51.42;9.68;;;;;;;;;;4928816;29;20040;-63
2022/06/07 11:26:52;;;;;;;24.10;10.18;;;;;;;;;;4926069;29;20048;-62
2022/06/07 11:29:19;;;;;;;;;;;;;;;;;;4929343;29;20055;-63
2022/06/07 11:31:46;;;;;;;40.63;6.38;;;;;;;;;;4927101;29;19945;-64
2022/06/07 11:34:12;;;;;;;54.38;17.63;;;;;;;;;;4917581;29;20557;-63
2022/06/07 11:36:41;;;;;;;36.47;6.57;;;;;;;;;;4919496;29;20096;-63
2022/06/07 11:39:37;;;;;;;28.45;5.95;;;;;;;;;;4924070;29;20047;-63
2022/06/07 11:42:06;;;;;;;268.45;24.80;;;;;;;;;;4913436;29;20068;-62
2022/06/07 11:44:36;;;;;;;33.25;6.97;;;;;;;;;;4919625;29;20055;-62
2022/06/07 11:47:12;;;;;;;48.30;9.45;;;;;;;;;;4919192;29;20051;-63
2022/06/07 11:49:39;;;;;;;80.53;9.50;;;;;;;;;;4916289;29;20044;-63
2022/06/07 11:52:12;;;;;;;29.83;6.75;;;;;;;;;;4918969;29;20127;-64
2022/06/07 11:54:45;;;;;;;30.17;7.40;;;;;;;;;;4919594;29;20052;-63
2022/06/07 11:57:31;;;;;;;21.70;7.35;;;;;;;;;;4918940;29;20040;-64
2022/06/07 12:00:16;;;;;;;33.10;8.90;;;;;;;;;;4918808;29;20127;-64
2022/06/07 12:03:00;;;;;;;31.73;6.82;;;;;;;;;;4923069;29;20086;-65
2022/06/07 12:05:29;;;;;;;33.45;6.72;;;;;;;;;;4930770;29;20131;-65
2022/06/07 12:07:59;;;;;;;29.25;6.88;;;;;;;;;;4918586;29;20047;-65
2022/06/07 12:10:29;;;;;;;681.63;57.08;;;;;;;;;;4919715;29;20048;-65
2022/06/07 12:13:00;;;;;;;211.90;19.25;;;;;;;;;;4919161;29;20074;-64
2022/06/07 12:15:37;;;;;;;31.05;6.97;;;;;;;;;;4909293;29;20071;-64
2022/06/07 12:18:16;;;;;;;21.08;6.40;;;;;;;;;;4925427;29;20044;-64
2022/06/07 12:20:43;;;;;;;15.32;5.95;;;;;;;;;;4918896;29;20430;-64
2022/06/07 12:23:28;;;;;;;31.38;6.93;;;;;;;;;;4919405;29;20061;-64
2022/06/07 12:26:00;;;;;;;25.23;7.25;;;;;;;;;;4914788;29;20052;-64
2022/06/07 12:28:28;;;;;;;406.48;31.90;;;;;;;;;;4934549;29;20043;-64
2022/06/07 12:30:54;;;;;;;29.10;7.45;;;;;;;;;;4928451;29;20044;-65
2022/06/07 12:33:28;;;;;;;13.40;6.25;;;;;;;;;;4927261;29;20075;-64
2022/06/07 12:36:01;;;;;;;18.77;6.78;;;;;;;;;;4925109;29;20043;-64
2022/06/07 12:38:28;;;;;;;44.58;8.32;;;;;;;;;;4926926;29;20055;-64
2022/06/07 12:40:59;;;;;;;160.60;15.75;;;;;;;;;;4918195;29;20139;-64
2022/06/07 12:43:31;;;;;;;46.13;8.10;;;;;;;;;;4923548;29;20119;-65
2022/06/07 12:46:17;;;;;;;16.45;5.30;;;;;;;;;;4930327;29;20086;-63
2022/06/07 12:48:43;;;;;;;;;;;;;;;;;;4924472;29;20062;-62
2022/06/07 12:51:27;;;;;;;37.35;7.85;;;;;;;;;;4904752;29;19973;-64
2022/06/07 12:54:01;;;;;;;45.30;8.13;;;;;;;;;;4901280;29;20048;-64
2022/06/07 12:56:29;;;;;;;24.75;7.05;;;;;;;;;;4909725;29;20610;-64
2022/06/07 12:58:57;;;;;;;45.17;8.57;;;;;;;;;;4896876;29;20468;-64
2022/06/07 13:01:38;;;;;;;26.75;6.65;;;;;;;;;;4902655;29;20044;-65
2022/06/07 13:04:20;;;;;;;51.08;7.63;;;;;;;;;;4905011;29;20052;-65
2022/06/07 13:06:57;;;;;;;24.13;6.30;;;;;;;;;;4906165;29;20036;-64
2022/06/07 13:09:23;;;;;;;47.05;8.20;;;;;;;;;;4900524;29;20059;-65
2022/06/07 13:11:50;;;;;;;33.50;6.60;;;;;;;;;;4902644;29;20067;-65
2022/06/07 13:14:18;;;;;;;15.55;5.82;;;;;;;;;;4899198;29;20064;-65
2022/06/07 13:16:46;;;;;;;41.63;7.30;;;;;;;;;;4918139;29;20078;-59
2022/06/07 13:19:13;;;;;;;46.90;8.32;;;;;;;;;;4901465;29;20131;-58
2022/06/07 13:22:09;;;;;;;37.63;6.82;;;;;;;;;;4910848;29;20058;-58
2022/06/07 13:24:40;;;;;;;31.63;6.80;;;;;;;;;;4902454;29;20103;-58
2022/06/07 13:27:26;;;;;;;34.70;8.05;;;;;;;;;;4914124;29;20043;-58
2022/06/07 13:29:53;;;;;;;30.52;6.60;;;;;;;;;;4914027;29;22201;-57
2022/06/07 13:32:22;;;;;;;75.82;9.73;;;;;;;;;;4913789;29;20484;-57
2022/06/07 13:34:53;;;;;;;489.23;38.22;;;;;;;;;;4917923;29;20044;-57
2022/06/07 13:37:21;;;;;;;117.35;10.70;;;;;;;;;;4900538;29;20044;-58
2022/06/07 13:39:53;;;;;;;107.72;12.10;;;;;;;;;;4902398;29;20224;-57
2022/06/07 13:42:22;;;;;;;87.70;10.20;;;;;;;;;;4902307;29;20044;-57
2022/06/07 13:45:00;;;;;;;343.48;32.25;;;;;;;;;;4902626;29;20147;-57
2022/06/07 13:47:34;;;;;;;77.72;10.60;;;;;;;;;;4902252;29;20044;-57
2022/06/07 13:55:45;;;;;;;41.83;8.00;;;;;;;;;;4901958;29;20124;-58
2022/06/07 13:58:12;;;;;;;41.03;8.95;;;;;;;;;;4901340;29;20490;-57
2022/06/07 14:00:44;;;;;;;20.00;5.93;;;;;;;;;;4902435;29;20481;-57
2022/06/07 14:03:15;;;;;;;72.90;9.73;;;;;;;;;;4902191;29;20064;-58
2022/06/07 14:05:42;;;;;;;30.63;6.88;;;;;;;;;;4902526;29;20116;-58
2022/06/07 14:08:12;;;;;;;41.47;7.88;;;;;;;;;;4901269;29;20068;-58
2022/06/07 14:10:39;;;;;;;70.30;10.18;;;;;;;;;;4916095;29;20055;-58
2022/06/07 14:13:06;;;;;;;28.60;7.13;;;;;;;;;;4911156;29;20070;-58
2022/06/07 14:15:34;;;;;;;30.20;6.25;;;;;;;;;;4913091;29;20040;-59
2022/06/07 14:18:06;;;;;;;43.97;7.18;;;;;;;;;;4908932;29;20086;-58
2022/06/07 14:20:34;;;;;;;57.38;8.43;;;;;;;;;;4901755;29;20071;-59
2022/06/07 14:23:01;;;;;;;130.27;13.77;;;;;;;;;;4902206;29;20074;-59
2022/06/07 14:25:28;;;;;;;24.92;6.70;;;;;;;;;;4917429;29;20044;-59
2022/06/07 14:27:55;;;;;;;27.80;6.30;;;;;;;;;;4902027;29;20159;-59
2022/06/07 14:30:22;;;;;;;47.63;7.45;;;;;;;;;;4902234;29;20048;-59
2022/06/07 14:32:51;;;;;;;39.05;6.72;;;;;;;;;;4902107;29;20057;-59
2022/06/07 14:35:20;;;;;;;21.85;5.22;;;;;;;;;;4899848;29;20056;-58
2022/06/07 14:37:46;;;;;;;137.88;11.75;;;;;;;;;;4916996;29;20100;-59
2022/06/07 14:40:14;;;;;;;78.05;9.27;;;;;;;;;;4899898;29;20065;-59
2022/06/07 14:42:42;;;;;;;15.15;5.00;;;;;;;;;;4910986;29;20501;-58
2022/06/07 14:45:12;;;;;;;9.70;4.70;;;;;;;;;;4908233;29;20040;-58
2022/06/07 14:47:39;;;;;;;34.55;6.50;;;;;;;;;;4902049;29;20041;-58
2022/06/07 14:50:13;;;;;;;31.45;6.03;;;;;;;;;;4900540;29;20076;-58
2022/06/07 14:52:40;;;;;;;100.93;10.02;;;;;;;;;;4898480;29;20040;-58
2022/06/07 14:55:09;;;;;;;40.65;6.45;;;;;;;;;;4904465;29;20048;-58
2022/06/07 14:57:39;;;;;;;32.90;6.30;;;;;;;;;;4901939;29;20051;-63
2022/06/07 15:00:06;;;;;;;45.60;7.03;;;;;;;;;;4905973;29;20481;-62
2022/06/07 15:02:35;;;;;;;39.53;6.22;;;;;;;;;;4905828;29;20048;-66
2022/06/07 15:05:22;;;;;;;62.90;10.02;;;;;;;;;;4901299;29;20116;-65
2022/06/07 15:07:51;;;;;;;75.32;9.00;;;;;;;;;;4900515;29;20532;-58
2022/06/07 15:10:18;;;;;;;47.35;7.50;;;;;;;;;;4909511;29;20051;-58
2022/06/07 15:12:45;;;;;;;34.58;6.00;;;;;;;;;;4909292;29;20119;-57